createdAt,value
2023-05-09T00:00:42.142Z,50.84
2023-05-09T00:01:42.203Z,50.84
2023-05-09T00:02:42.497Z,50.86
2023-05-09T00:03:42.333Z,50.87
2023-05-09T00:04:42.408Z,50.83
2023-05-09T00:05:42.436Z,50.85
2023-05-09T00:06:42.493Z,50.85
2023-05-09T00:07:42.541Z,50.87
2023-05-09T00:08:42.562Z,50.85
2023-05-09T00:09:42.612Z,50.88
2023-05-09T00:10:42.668Z,50.85
2023-05-09T00:11:42.732Z,50.85
2023-05-09T00:12:42.820Z,50.85
2023-05-09T00:13:42.812Z,50.80
2023-05-09T00:14:42.849Z,50.85
2023-05-09T00:15:42.883Z,50.83
2023-05-09T00:16:43.008Z,50.83
2023-05-09T00:17:43.064Z,50.80
2023-05-09T00:18:43.083Z,50.79
2023-05-09T00:19:43.971Z,50.81
2023-05-09T00:20:43.168Z,50.83
2023-05-09T00:21:43.243Z,50.83
2023-05-09T00:22:43.296Z,50.81
2023-05-09T00:23:43.311Z,50.82
2023-05-09T00:24:43.406Z,50.81
2023-05-09T00:25:43.442Z,50.78
2023-05-09T00:26:43.518Z,50.79
2023-05-09T00:27:43.572Z,50.80
2023-05-09T00:28:43.712Z,50.76
2023-05-09T00:29:43.668Z,50.80
2023-05-09T00:30:43.704Z,50.77
2023-05-09T00:31:43.965Z,50.74
2023-05-09T00:32:43.860Z,50.75
2023-05-09T00:33:43.863Z,50.76
2023-05-09T00:34:43.892Z,50.72
2023-05-09T00:35:43.982Z,50.75
2023-05-09T00:36:44.057Z,50.72
2023-05-09T00:37:44.102Z,50.77
2023-05-09T00:38:44.132Z,50.74
2023-05-09T00:39:44.190Z,50.77
2023-05-09T00:40:44.240Z,50.76
2023-05-09T00:41:44.267Z,50.76
2023-05-09T00:42:44.302Z,50.74
2023-05-09T00:43:44.351Z,50.75
2023-05-09T00:44:44.510Z,50.75
2023-05-09T00:45:44.459Z,50.74
2023-05-09T00:46:44.509Z,50.75
2023-05-09T00:47:44.574Z,50.72
2023-05-09T00:48:44.592Z,50.72
2023-05-09T00:49:44.649Z,50.73
2023-05-09T00:50:44.715Z,50.76
2023-05-09T00:51:44.768Z,50.75
2023-05-09T00:52:44.833Z,50.72
2023-05-09T00:53:44.857Z,50.77
2023-05-09T00:54:44.905Z,50.74
2023-05-09T00:55:44.975Z,50.69
2023-05-09T00:56:45.058Z,50.71
2023-05-09T00:57:45.064Z,50.69
2023-05-09T00:58:45.129Z,50.70
2023-05-09T00:59:45.176Z,50.71
2023-05-09T01:00:45.309Z,50.72
2023-05-09T01:01:45.394Z,50.69
2023-05-09T01:02:45.443Z,50.71
2023-05-09T01:03:45.451Z,50.74
2023-05-09T01:04:45.439Z,50.71
2023-05-09T01:05:45.486Z,50.73
2023-05-09T01:06:45.535Z,50.73
2023-05-09T01:07:45.583Z,50.72
2023-05-09T01:08:45.618Z,50.69
2023-05-09T01:09:45.656Z,50.65
2023-05-09T01:10:45.694Z,50.67
2023-05-09T01:11:45.974Z,50.75
2023-05-09T01:12:45.786Z,50.75
2023-05-09T01:13:45.805Z,50.73
2023-05-09T01:14:45.887Z,50.73
2023-05-09T01:15:45.973Z,50.70
2023-05-09T01:16:46.072Z,50.70
2023-05-09T01:17:46.130Z,50.69
2023-05-09T01:18:46.060Z,50.70
2023-05-09T01:19:46.085Z,50.66
2023-05-09T01:20:46.158Z,50.69
2023-05-09T01:21:46.198Z,50.70
2023-05-09T01:22:46.231Z,50.69
2023-05-09T01:23:46.311Z,50.63
2023-05-09T01:24:46.350Z,50.67
2023-05-09T01:25:46.380Z,50.65
2023-05-09T01:26:46.437Z,50.68
2023-05-09T01:27:46.481Z,50.68
2023-05-09T01:28:46.544Z,50.65
2023-05-09T01:29:46.557Z,50.67
2023-05-09T01:30:46.620Z,50.63
2023-05-09T01:31:46.792Z,50.65
2023-05-09T01:32:46.774Z,50.66
2023-05-09T01:33:46.682Z,50.70
2023-05-09T01:34:46.752Z,50.67
2023-05-09T01:35:46.794Z,50.69
2023-05-09T01:36:46.841Z,50.67
2023-05-09T01:37:46.850Z,50.71
2023-05-09T01:38:46.890Z,50.70
2023-05-09T01:39:46.916Z,50.67
2023-05-09T01:40:46.973Z,50.67
2023-05-09T01:41:47.490Z,50.67
2023-05-09T01:42:47.028Z,50.66
2023-05-09T01:43:47.133Z,50.67
2023-05-09T01:44:47.105Z,50.67
2023-05-09T01:45:47.166Z,50.67
2023-05-09T01:46:47.523Z,50.67
2023-05-09T01:47:47.313Z,50.65
2023-05-09T01:48:47.376Z,50.67
2023-05-09T01:49:47.317Z,50.65
2023-05-09T01:50:47.451Z,50.69
2023-05-09T01:51:47.481Z,50.66
2023-05-09T01:52:47.495Z,50.65
2023-05-09T01:53:47.533Z,50.67
2023-05-09T01:54:47.559Z,50.65
2023-05-09T01:55:47.693Z,50.66
2023-05-09T01:56:48.006Z,50.68
2023-05-09T01:57:47.706Z,50.67
2023-05-09T01:58:47.735Z,50.69
2023-05-09T01:59:47.754Z,50.69
2023-05-09T02:00:47.871Z,50.66
2023-05-09T02:01:48.078Z,50.65
2023-05-09T02:02:48.010Z,50.64
2023-05-09T02:03:47.931Z,50.65
2023-05-09T02:04:48.064Z,50.67
2023-05-09T02:05:48.047Z,50.65
2023-05-09T02:06:48.513Z,50.64
2023-05-09T02:07:48.110Z,50.59
2023-05-09T02:08:48.191Z,50.64
2023-05-09T02:09:48.208Z,50.65
2023-05-09T02:10:48.242Z,50.66
2023-05-09T02:11:48.284Z,50.61
2023-05-09T02:12:48.314Z,50.63
2023-05-09T02:13:48.368Z,50.63
2023-05-09T02:14:48.384Z,50.65
2023-05-09T02:15:48.417Z,50.64
2023-05-09T02:16:48.517Z,50.62
2023-05-09T02:17:48.586Z,50.70
2023-05-09T02:18:48.557Z,50.67
2023-05-09T02:19:48.635Z,50.64
2023-05-09T02:20:48.840Z,50.65
2023-05-09T02:21:48.996Z,50.64
2023-05-09T02:22:48.802Z,50.67
2023-05-09T02:23:48.855Z,50.66
2023-05-09T02:24:48.906Z,50.65
2023-05-09T02:25:48.915Z,50.66
2023-05-09T02:26:49.062Z,50.65
2023-05-09T02:27:48.980Z,50.66
2023-05-09T02:28:49.001Z,50.66
2023-05-09T02:29:49.041Z,50.66
2023-05-09T02:30:49.082Z,50.68
2023-05-09T02:31:49.147Z,50.64
2023-05-09T02:32:49.227Z,50.67
2023-05-09T02:33:49.204Z,50.60
2023-05-09T02:34:49.229Z,50.65
2023-05-09T02:35:49.300Z,50.65
2023-05-09T02:36:49.602Z,50.61
2023-05-09T02:37:49.369Z,50.60
2023-05-09T02:38:49.388Z,50.65
2023-05-09T02:39:49.413Z,50.66
2023-05-09T02:40:50.997Z,50.63
2023-05-09T02:41:49.536Z,50.62
2023-05-09T02:42:49.419Z,50.63
2023-05-09T02:43:49.422Z,50.65
2023-05-09T02:44:49.442Z,50.63
2023-05-09T02:45:49.479Z,50.65
2023-05-09T02:46:49.408Z,50.61
2023-05-09T02:47:49.423Z,50.62
2023-05-09T02:48:49.403Z,50.62
2023-05-09T02:49:49.387Z,50.64
2023-05-09T02:50:49.358Z,50.62
2023-05-09T02:51:49.387Z,50.65
2023-05-09T02:52:49.469Z,50.64
2023-05-09T02:53:49.351Z,50.67
2023-05-09T02:54:49.341Z,50.63
2023-05-09T02:55:49.312Z,50.66
2023-05-09T02:56:49.321Z,50.63
2023-05-09T02:57:56.234Z,50.66
2023-05-09T02:58:50.303Z,50.66
2023-05-09T02:59:49.329Z,50.68
2023-05-09T03:00:49.296Z,50.67
2023-05-09T03:01:49.390Z,50.65
2023-05-09T03:02:49.591Z,50.66
2023-05-09T03:03:49.298Z,50.67
2023-05-09T03:04:49.318Z,50.65
2023-05-09T03:05:49.261Z,50.62
2023-05-09T03:06:49.292Z,50.62
2023-05-09T03:07:49.283Z,50.64
2023-05-09T03:08:49.336Z,50.61
2023-05-09T03:09:49.250Z,50.63
2023-05-09T03:10:49.266Z,50.63
2023-05-09T03:11:49.265Z,50.64
2023-05-09T03:12:49.336Z,50.62
2023-05-09T03:13:49.282Z,50.61
2023-05-09T03:14:49.289Z,50.62
2023-05-09T03:15:49.307Z,50.65
2023-05-09T03:16:49.364Z,50.63
2023-05-09T03:17:49.439Z,50.61
2023-05-09T03:18:49.368Z,50.61
2023-05-09T03:19:49.411Z,50.65
2023-05-09T03:20:49.396Z,50.63
2023-05-09T03:21:49.445Z,50.63
2023-05-09T03:22:49.512Z,50.61
2023-05-09T03:23:49.514Z,50.63
2023-05-09T03:24:49.568Z,50.66
2023-05-09T03:25:49.458Z,50.62
2023-05-09T03:26:49.518Z,50.62
2023-05-09T03:27:49.576Z,50.62
2023-05-09T03:28:49.523Z,50.61
2023-05-09T03:29:49.552Z,50.62
2023-05-09T03:30:49.568Z,50.66
2023-05-09T03:31:49.651Z,50.65
2023-05-09T03:32:49.652Z,50.65
2023-05-09T03:33:49.619Z,50.62
2023-05-09T03:34:49.659Z,50.62
2023-05-09T03:35:49.667Z,50.62
2023-05-09T03:36:49.665Z,50.60
2023-05-09T03:37:49.685Z,50.60
2023-05-09T03:38:49.708Z,50.59
2023-05-09T03:39:49.703Z,50.60
2023-05-09T03:40:49.824Z,50.58
2023-05-09T03:41:49.787Z,50.60
2023-05-09T03:42:50.053Z,50.58
2023-05-09T03:43:49.828Z,50.60
2023-05-09T03:44:49.816Z,50.61
2023-05-09T03:45:49.820Z,50.62
2023-05-09T03:46:49.862Z,50.56
2023-05-09T03:47:49.915Z,50.59
2023-05-09T03:48:49.874Z,50.62
2023-05-09T03:49:49.939Z,50.63
2023-05-09T03:50:49.922Z,50.61
2023-05-09T03:51:49.931Z,50.58
2023-05-09T03:52:49.899Z,50.59
2023-05-09T03:53:49.913Z,50.62
2023-05-09T03:54:49.998Z,50.63
2023-05-09T03:55:50.033Z,50.63
2023-05-09T03:56:50.109Z,50.62
2023-05-09T03:57:50.025Z,50.63
2023-05-09T03:58:50.043Z,50.62
2023-05-09T03:59:50.076Z,50.62
2023-05-09T04:00:50.091Z,50.62
2023-05-09T04:01:50.114Z,50.62
2023-05-09T04:02:50.130Z,50.65
2023-05-09T04:03:50.135Z,50.65
2023-05-09T04:04:50.130Z,50.62
2023-05-09T04:05:50.136Z,50.61
2023-05-09T04:06:50.128Z,50.65
2023-05-09T04:07:50.176Z,50.63
2023-05-09T04:08:50.190Z,50.64
2023-05-09T04:09:50.178Z,50.60
2023-05-09T04:10:50.242Z,50.62
2023-05-09T04:11:50.248Z,50.63
2023-05-09T04:12:50.404Z,50.60
2023-05-09T04:13:50.279Z,50.59
2023-05-09T04:14:50.275Z,50.62
2023-05-09T04:15:50.273Z,50.63
2023-05-09T04:16:50.354Z,50.62
2023-05-09T04:17:50.329Z,50.62
2023-05-09T04:18:50.354Z,50.66
2023-05-09T04:19:50.360Z,50.63
2023-05-09T04:20:50.354Z,50.63
2023-05-09T04:21:50.382Z,50.65
2023-05-09T04:22:50.424Z,50.62
2023-05-09T04:23:50.443Z,50.63
2023-05-09T04:24:50.462Z,50.64
2023-05-09T04:25:50.476Z,50.60
2023-05-09T04:26:50.469Z,50.60
2023-05-09T04:27:50.517Z,50.60
2023-05-09T04:28:50.646Z,50.61
2023-05-09T04:29:50.542Z,50.63
2023-05-09T04:30:50.625Z,50.64
2023-05-09T04:31:50.749Z,50.62
2023-05-09T04:32:50.620Z,50.62
2023-05-09T04:33:50.627Z,50.62
2023-05-09T04:34:50.669Z,50.59
2023-05-09T04:35:50.712Z,50.63
2023-05-09T04:36:50.732Z,50.63
2023-05-09T04:37:51.076Z,50.65
2023-05-09T04:38:50.792Z,50.62
2023-05-09T04:39:50.831Z,50.64
2023-05-09T04:40:50.866Z,50.62
2023-05-09T04:41:50.924Z,50.66
2023-05-09T04:42:50.952Z,50.67
2023-05-09T04:43:50.987Z,50.61
2023-05-09T04:44:51.054Z,50.65
2023-05-09T04:45:51.080Z,50.62
2023-05-09T04:46:51.098Z,50.62
2023-05-09T04:47:51.646Z,50.58
2023-05-09T04:48:51.167Z,50.58
2023-05-09T04:49:51.226Z,50.59
2023-05-09T04:50:51.282Z,50.54
2023-05-09T04:51:51.311Z,50.53
2023-05-09T04:52:51.335Z,50.54
2023-05-09T04:53:51.367Z,50.55
2023-05-09T04:54:51.419Z,50.55
2023-05-09T04:55:51.379Z,50.51
2023-05-09T04:56:51.627Z,50.53
2023-05-09T04:57:51.438Z,50.53
2023-05-09T04:58:51.456Z,50.53
2023-05-09T04:59:51.446Z,50.50
2023-05-09T05:00:51.547Z,50.49
2023-05-09T05:01:51.524Z,50.56
2023-05-09T05:02:51.596Z,50.49
2023-05-09T05:03:51.518Z,50.52
2023-05-09T05:04:52.857Z,50.50
2023-05-09T05:05:51.565Z,50.50
2023-05-09T05:06:51.514Z,50.46
2023-05-09T05:07:51.505Z,50.47
2023-05-09T05:08:51.515Z,50.46
2023-05-09T05:09:51.524Z,50.46
2023-05-09T05:10:51.518Z,50.46
2023-05-09T05:12:00.750Z,50.47
2023-05-09T05:12:52.488Z,50.47
2023-05-09T05:13:51.466Z,50.47
2023-05-09T05:14:51.446Z,50.48
2023-05-09T05:15:51.526Z,50.46
2023-05-09T05:16:51.467Z,50.43
2023-05-09T05:17:51.484Z,50.42
2023-05-09T05:18:51.445Z,50.42
2023-05-09T05:19:51.432Z,50.46
2023-05-09T05:20:51.430Z,51.22
2023-05-09T05:21:51.435Z,52.00
2023-05-09T05:22:51.410Z,53.50
2023-05-09T05:23:51.410Z,54.77
2023-05-09T05:24:51.390Z,52.92
2023-05-09T05:25:51.402Z,53.24
2023-05-09T05:26:51.373Z,53.01
2023-05-09T05:27:51.362Z,52.85
2023-05-09T05:28:51.409Z,52.79
2023-05-09T05:29:51.349Z,52.82
2023-05-09T05:30:51.375Z,52.90
2023-05-09T05:31:51.440Z,52.94
2023-05-09T05:32:51.617Z,52.97
2023-05-09T05:33:51.352Z,53.00
2023-05-09T05:34:51.378Z,52.99
2023-05-09T05:35:51.428Z,53.06
2023-05-09T05:36:51.406Z,52.99
2023-05-09T05:37:51.429Z,53.03
2023-05-09T05:38:51.433Z,53.08
2023-05-09T05:39:51.455Z,53.03
2023-05-09T05:40:51.531Z,53.12
2023-05-09T05:41:51.515Z,53.16
2023-05-09T05:42:51.573Z,53.21
2023-05-09T05:43:54.096Z,53.24
2023-05-09T05:44:51.525Z,53.30
2023-05-09T05:45:51.531Z,54.20
2023-05-09T05:46:51.532Z,54.23
2023-05-09T05:47:51.519Z,55.07
2023-05-09T05:48:51.598Z,54.21
2023-05-09T05:49:51.534Z,54.03
2023-05-09T05:50:51.505Z,54.15
2023-05-09T05:51:51.466Z,53.94
2023-05-09T05:52:51.575Z,54.00
2023-05-09T05:53:51.528Z,54.04
2023-05-09T05:54:51.467Z,54.17
2023-05-09T05:55:51.472Z,54.37
2023-05-09T05:56:51.480Z,54.42
2023-05-09T05:57:51.571Z,54.49
2023-05-09T05:58:51.450Z,54.63
2023-05-09T05:59:51.454Z,54.52
2023-05-09T06:00:51.427Z,55.06
2023-05-09T06:01:51.483Z,54.75
2023-05-09T06:02:51.700Z,55.13
2023-05-09T06:03:51.506Z,55.06
2023-05-09T06:04:52.703Z,55.17
2023-05-09T06:05:51.439Z,54.92
2023-05-09T06:06:51.477Z,54.88
2023-05-09T06:07:51.547Z,55.15
2023-05-09T06:08:51.528Z,55.11
2023-05-09T06:09:51.532Z,55.19
2023-05-09T06:10:51.522Z,55.19
2023-05-09T06:11:51.603Z,55.22
2023-05-09T06:12:51.650Z,55.33
2023-05-09T06:13:51.575Z,55.25
2023-05-09T06:14:51.603Z,55.48
2023-05-09T06:15:51.603Z,55.44
2023-05-09T06:16:51.620Z,55.38
2023-05-09T06:17:52.120Z,55.37
2023-05-09T06:18:53.432Z,55.57
2023-05-09T06:19:51.656Z,55.73
2023-05-09T06:20:51.627Z,55.83
2023-05-09T06:21:51.651Z,55.89
2023-05-09T06:22:51.620Z,55.86
2023-05-09T06:24:07.843Z,56.01
2023-05-09T06:24:52.654Z,56.02
2023-05-09T06:25:51.623Z,55.88
2023-05-09T06:26:51.603Z,55.98
2023-05-09T06:27:51.626Z,56.05
2023-05-09T06:28:51.569Z,56.17
2023-05-09T06:29:51.592Z,56.13
2023-05-09T06:30:51.584Z,56.28
2023-05-09T06:31:51.686Z,56.24
2023-05-09T06:32:51.610Z,56.25
2023-05-09T06:33:52.096Z,56.35
2023-05-09T06:34:51.643Z,56.35
2023-05-09T06:35:51.708Z,56.41
2023-05-09T06:36:51.833Z,56.46
2023-05-09T06:37:51.817Z,56.56
2023-05-09T06:38:52.103Z,56.73
2023-05-09T06:39:51.913Z,56.72
2023-05-09T06:40:51.958Z,56.75
2023-05-09T06:41:52.026Z,56.90
2023-05-09T06:42:52.060Z,56.94
2023-05-09T06:43:52.085Z,56.94
2023-05-09T06:44:52.244Z,56.92
2023-05-09T06:45:52.213Z,57.12
2023-05-09T06:46:52.237Z,57.10
2023-05-09T06:47:52.324Z,57.05
2023-05-09T06:48:52.363Z,57.18
2023-05-09T06:49:52.428Z,57.09
2023-05-09T06:50:52.435Z,57.17
2023-05-09T06:51:52.489Z,57.24
2023-05-09T06:52:52.626Z,56.80
2023-05-09T06:53:52.583Z,57.09
2023-05-09T06:54:52.633Z,56.65
2023-05-09T06:55:52.711Z,56.86
2023-05-09T06:56:52.740Z,56.72
2023-05-09T06:57:52.815Z,56.67
2023-05-09T06:58:52.905Z,56.94
2023-05-09T06:59:52.926Z,57.04
2023-05-09T07:00:52.953Z,57.04
2023-05-09T07:01:53.060Z,57.20
2023-05-09T07:02:53.104Z,57.10
2023-05-09T07:03:53.092Z,57.02
2023-05-09T07:04:53.148Z,57.07
2023-05-09T07:05:54.126Z,57.13
2023-05-09T07:06:53.227Z,57.12
2023-05-09T07:07:53.162Z,57.18
2023-05-09T07:08:53.135Z,57.23
2023-05-09T07:10:00.621Z,57.24
2023-05-09T07:10:54.301Z,57.26
2023-05-09T07:12:00.456Z,57.30
2023-05-09T07:12:53.308Z,57.38
2023-05-09T07:13:53.117Z,57.47
2023-05-09T07:14:53.115Z,57.47
2023-05-09T07:15:53.140Z,57.53
2023-05-09T07:16:53.098Z,57.87
2023-05-09T07:17:53.099Z,57.74
2023-05-09T07:18:53.080Z,57.70
2023-05-09T07:19:53.088Z,57.71
2023-05-09T07:20:53.067Z,57.68
2023-05-09T07:21:53.046Z,57.91
2023-05-09T07:22:53.108Z,57.96
2023-05-09T07:23:53.179Z,57.85
2023-05-09T07:24:53.152Z,57.82
2023-05-09T07:25:52.995Z,57.72
2023-05-09T07:26:53.008Z,57.68
2023-05-09T07:27:53.045Z,57.73
2023-05-09T07:28:53.005Z,57.72
2023-05-09T07:29:52.996Z,57.83
2023-05-09T07:30:53.016Z,57.88
2023-05-09T07:31:53.001Z,57.93
2023-05-09T07:32:53.019Z,57.98
2023-05-09T07:33:52.991Z,57.97
2023-05-09T07:34:52.956Z,58.06
2023-05-09T07:35:53.070Z,58.12
2023-05-09T07:36:52.955Z,58.19
2023-05-09T07:37:52.935Z,58.25
2023-05-09T07:38:52.918Z,58.27
2023-05-09T07:39:52.955Z,58.39
2023-05-09T07:40:53.018Z,58.37
2023-05-09T07:41:52.948Z,58.42
2023-05-09T07:42:52.918Z,58.46
2023-05-09T07:43:53.124Z,58.49
2023-05-09T07:44:52.906Z,58.58
2023-05-09T07:45:52.936Z,58.64
2023-05-09T07:46:52.889Z,58.79
2023-05-09T07:47:52.975Z,59.18
2023-05-09T07:48:53.133Z,59.17
2023-05-09T07:49:52.868Z,59.13
2023-05-09T07:50:52.893Z,58.96
2023-05-09T07:51:52.872Z,58.80
2023-05-09T07:52:52.927Z,58.71
2023-05-09T07:53:52.871Z,58.89
2023-05-09T07:54:52.818Z,58.78
2023-05-09T07:55:52.837Z,58.70
2023-05-09T07:56:52.983Z,58.97
2023-05-09T07:57:52.811Z,58.95
2023-05-09T07:58:55.057Z,58.17
2023-05-09T07:59:52.836Z,56.05
2023-05-09T08:00:52.819Z,55.18
2023-05-09T08:01:52.880Z,53.80
2023-05-09T08:02:52.930Z,53.65
2023-05-09T08:03:53.288Z,53.53
2023-05-09T08:04:52.777Z,53.19
2023-05-09T08:05:52.791Z,52.71
2023-05-09T08:06:52.779Z,52.60
2023-05-09T08:07:52.806Z,52.21
2023-05-09T08:08:52.780Z,52.13
2023-05-09T08:09:52.755Z,51.74
2023-05-09T08:10:52.776Z,51.88
2023-05-09T08:11:52.749Z,51.63
2023-05-09T08:12:52.811Z,51.72
2023-05-09T08:13:52.732Z,51.64
2023-05-09T08:14:52.736Z,51.58
2023-05-09T08:15:52.754Z,51.87
2023-05-09T08:16:52.727Z,51.87
2023-05-09T08:17:52.747Z,51.90
2023-05-09T08:18:52.710Z,52.27
2023-05-09T08:19:52.677Z,52.48
2023-05-09T08:20:52.699Z,52.64
2023-05-09T08:21:52.652Z,52.78
2023-05-09T08:22:52.659Z,53.10
2023-05-09T08:23:52.664Z,53.20
2023-05-09T08:24:52.681Z,53.33
2023-05-09T08:25:52.667Z,53.29
2023-05-09T08:26:52.670Z,53.30
2023-05-09T08:27:53.140Z,53.32
2023-05-09T08:28:52.660Z,53.44
2023-05-09T08:29:52.603Z,53.44
2023-05-09T08:30:52.615Z,53.54
2023-05-09T08:31:52.716Z,53.61
2023-05-09T08:32:52.685Z,53.63
2023-05-09T08:33:52.577Z,53.71
2023-05-09T08:34:52.557Z,53.73
2023-05-09T08:35:52.604Z,53.73
2023-05-09T08:36:52.565Z,53.79
2023-05-09T08:37:52.558Z,53.82
2023-05-09T08:38:52.663Z,53.86
2023-05-09T08:39:52.528Z,53.93
2023-05-09T08:40:52.548Z,53.96
2023-05-09T08:41:52.536Z,54.04
2023-05-09T08:42:52.545Z,54.09
2023-05-09T08:43:52.538Z,54.08
2023-05-09T08:44:52.585Z,54.11
2023-05-09T08:45:52.520Z,54.04
2023-05-09T08:46:52.533Z,54.11
2023-05-09T08:47:52.535Z,54.19
2023-05-09T08:48:52.667Z,54.06
2023-05-09T08:49:52.469Z,53.82
2023-05-09T08:50:52.505Z,53.99
2023-05-09T08:51:52.490Z,53.86
2023-05-09T08:52:52.453Z,53.05
2023-05-09T08:53:52.540Z,53.16
2023-05-09T08:54:52.591Z,53.09
2023-05-09T08:55:52.643Z,53.51
2023-05-09T08:56:52.666Z,52.22
2023-05-09T08:57:52.739Z,52.14
2023-05-09T08:58:52.810Z,52.33
2023-05-09T08:59:52.856Z,52.88
2023-05-09T09:00:53.057Z,53.09
2023-05-09T09:01:53.012Z,53.21
2023-05-09T09:02:53.098Z,53.72
2023-05-09T09:03:53.197Z,53.37
2023-05-09T09:04:53.129Z,53.32
2023-05-09T09:05:53.130Z,53.30
2023-05-09T09:06:53.181Z,53.33
2023-05-09T09:07:53.196Z,53.32
2023-05-09T09:08:53.664Z,53.34
2023-05-09T09:09:53.251Z,53.32
2023-05-09T09:10:53.301Z,53.26
2023-05-09T09:11:53.358Z,53.26
2023-05-09T09:12:53.343Z,53.25
2023-05-09T09:13:53.375Z,53.23
2023-05-09T09:14:53.410Z,53.20
2023-05-09T09:15:53.423Z,53.18
2023-05-09T09:16:53.525Z,53.19
2023-05-09T09:17:53.474Z,53.19
2023-05-09T09:18:53.711Z,53.12
2023-05-09T09:19:53.504Z,53.08
2023-05-09T09:20:53.496Z,52.89
2023-05-09T09:21:53.510Z,52.48
2023-05-09T09:22:53.541Z,51.65
2023-05-09T09:23:53.655Z,51.74
2023-05-09T09:24:53.652Z,51.57
2023-05-09T09:25:53.674Z,50.68
2023-05-09T09:26:53.716Z,50.49
2023-05-09T09:27:53.803Z,50.44
2023-05-09T09:28:53.816Z,50.28
2023-05-09T09:29:53.839Z,50.11
2023-05-09T09:30:53.912Z,49.98
2023-05-09T09:31:54.015Z,49.60
2023-05-09T09:32:54.137Z,49.63
2023-05-09T09:33:54.063Z,49.76
2023-05-09T09:34:54.080Z,50.05
2023-05-09T09:35:54.127Z,50.36
2023-05-09T09:36:54.206Z,50.42
2023-05-09T09:37:54.177Z,50.49
2023-05-09T09:38:54.708Z,50.59
2023-05-09T09:39:54.248Z,50.74
2023-05-09T09:40:54.259Z,50.93
2023-05-09T09:41:54.282Z,50.95
2023-05-09T09:42:54.290Z,50.92
2023-05-09T09:43:54.755Z,50.96
2023-05-09T09:44:54.682Z,51.07
2023-05-09T09:45:54.466Z,51.16
2023-05-09T09:46:54.345Z,51.22
2023-05-09T09:47:54.400Z,51.18
2023-05-09T09:48:54.438Z,51.25
2023-05-09T09:49:54.725Z,51.13
2023-05-09T09:50:54.402Z,51.13
2023-05-09T09:51:54.415Z,51.21
2023-05-09T09:52:54.421Z,51.16
2023-05-09T09:53:54.427Z,51.11
2023-05-09T09:54:54.674Z,50.62
2023-05-09T09:55:54.469Z,50.98
2023-05-09T09:56:54.517Z,50.97
2023-05-09T09:57:54.520Z,51.04
2023-05-09T09:58:54.539Z,51.03
2023-05-09T09:59:54.675Z,51.10
2023-05-09T10:00:54.595Z,51.22
2023-05-09T10:01:54.578Z,51.39
2023-05-09T10:02:54.611Z,51.41
2023-05-09T10:03:54.633Z,51.54
2023-05-09T10:04:54.656Z,51.60
2023-05-09T10:05:54.596Z,51.73
2023-05-09T10:06:54.615Z,51.83
2023-05-09T10:07:54.616Z,51.99
2023-05-09T10:08:54.645Z,51.98
2023-05-09T10:09:54.656Z,52.14
2023-05-09T10:10:54.706Z,52.23
2023-05-09T10:11:54.708Z,52.26
2023-05-09T10:12:54.798Z,52.38
2023-05-09T10:13:54.814Z,52.48
2023-05-09T10:14:55.185Z,52.61
2023-05-09T10:15:54.956Z,52.71
2023-05-09T10:16:55.333Z,52.82
2023-05-09T10:17:55.553Z,52.88
2023-05-09T10:18:55.135Z,52.93
2023-05-09T10:19:55.176Z,52.96
2023-05-09T10:20:55.164Z,53.27
2023-05-09T10:21:55.129Z,53.22
2023-05-09T10:22:55.179Z,53.36
2023-05-09T10:23:55.244Z,53.53
2023-05-09T10:24:56.932Z,52.99
2023-05-09T10:25:55.315Z,52.63
2023-05-09T10:26:55.347Z,53.11
2023-05-09T10:27:55.362Z,52.51
2023-05-09T10:28:55.375Z,52.82
2023-05-09T10:29:55.378Z,51.79
2023-05-09T10:30:55.420Z,50.94
2023-05-09T10:31:55.421Z,50.51
2023-05-09T10:32:55.454Z,50.54
2023-05-09T10:33:55.420Z,49.81
2023-05-09T10:34:55.412Z,49.47
2023-05-09T10:35:55.428Z,49.44
2023-05-09T10:36:55.514Z,49.43
2023-05-09T10:37:55.469Z,49.01
2023-05-09T10:38:55.512Z,48.93
2023-05-09T10:39:55.522Z,48.91
2023-05-09T10:40:55.563Z,48.85
2023-05-09T10:41:55.617Z,49.14
2023-05-09T10:42:55.650Z,49.26
2023-05-09T10:43:55.688Z,47.20
2023-05-09T10:44:55.741Z,47.13
2023-05-09T10:45:55.767Z,48.14
2023-05-09T10:46:55.826Z,48.57
2023-05-09T10:47:55.798Z,48.80
2023-05-09T10:48:55.831Z,49.01
2023-05-09T10:49:55.899Z,48.89
2023-05-09T10:50:55.882Z,48.94
2023-05-09T10:51:55.896Z,48.71
2023-05-09T10:52:55.969Z,48.62
2023-05-09T10:53:55.997Z,48.43
2023-05-09T10:54:56.199Z,48.01
2023-05-09T10:55:56.038Z,47.94
2023-05-09T10:56:56.087Z,47.90
2023-05-09T10:57:56.104Z,47.94
2023-05-09T10:58:56.136Z,47.87
2023-05-09T10:59:56.204Z,48.09
2023-05-09T11:00:57.254Z,48.03
2023-05-09T11:01:56.317Z,48.10
2023-05-09T11:02:56.340Z,48.02
2023-05-09T11:03:56.320Z,48.22
2023-05-09T11:04:56.715Z,48.11
2023-05-09T11:05:56.372Z,48.12
2023-05-09T11:06:57.771Z,48.08
2023-05-09T11:07:56.405Z,48.11
2023-05-09T11:08:56.514Z,48.04
2023-05-09T11:09:56.726Z,48.11
2023-05-09T11:10:56.526Z,48.01
2023-05-09T11:11:56.552Z,48.01
2023-05-09T11:12:58.004Z,48.05
2023-05-09T11:13:56.632Z,48.14
2023-05-09T11:14:56.725Z,48.13
2023-05-09T11:15:56.754Z,48.16
2023-05-09T11:16:56.783Z,48.20
2023-05-09T11:17:56.836Z,48.25
2023-05-09T11:18:56.856Z,48.24
2023-05-09T11:19:57.204Z,48.19
2023-05-09T11:20:56.963Z,48.27
2023-05-09T11:21:56.973Z,48.26
2023-05-09T11:22:57.005Z,48.30
2023-05-09T11:23:57.086Z,48.34
2023-05-09T11:24:57.332Z,48.41
2023-05-09T11:25:57.167Z,48.37
2023-05-09T11:26:57.203Z,48.40
2023-05-09T11:27:57.217Z,48.41
2023-05-09T11:28:57.299Z,48.44
2023-05-09T11:29:57.751Z,48.44
2023-05-09T11:30:57.409Z,48.46
2023-05-09T11:31:57.494Z,48.46
2023-05-09T11:32:57.498Z,48.56
2023-05-09T11:33:57.501Z,48.62
2023-05-09T11:34:57.719Z,48.68
2023-05-09T11:35:57.628Z,48.57
2023-05-09T11:36:57.647Z,48.72
2023-05-09T11:37:57.728Z,48.61
2023-05-09T11:38:57.795Z,48.61
2023-05-09T11:39:57.843Z,48.60
2023-05-09T11:40:57.952Z,48.59
2023-05-09T11:41:57.916Z,48.66
2023-05-09T11:42:58.805Z,48.63
2023-05-09T11:43:58.013Z,48.67
2023-05-09T11:44:58.225Z,48.68
2023-05-09T11:45:58.114Z,48.72
2023-05-09T11:46:58.154Z,48.71
2023-05-09T11:47:58.299Z,48.71
2023-05-09T11:48:58.272Z,48.79
2023-05-09T11:49:58.334Z,48.82
2023-05-09T11:50:58.382Z,48.81
2023-05-09T11:51:58.410Z,48.82
2023-05-09T11:52:58.503Z,48.78
2023-05-09T11:53:58.504Z,48.81
2023-05-09T11:54:58.712Z,48.80
2023-05-09T11:55:58.649Z,48.80
2023-05-09T11:56:58.778Z,48.84
2023-05-09T11:57:58.737Z,48.86
2023-05-09T11:58:58.807Z,48.91
2023-05-09T11:59:59.214Z,48.90
2023-05-09T12:00:58.861Z,48.97
2023-05-09T12:01:58.941Z,48.96
2023-05-09T12:02:59.084Z,48.99
2023-05-09T12:03:59.114Z,48.99
2023-05-09T12:04:59.074Z,48.97
2023-05-09T12:05:59.129Z,49.00
2023-05-09T12:06:59.188Z,48.98
2023-05-09T12:07:59.223Z,49.02
2023-05-09T12:08:59.319Z,49.07
2023-05-09T12:09:59.763Z,49.06
2023-05-09T12:10:59.394Z,49.06
2023-05-09T12:11:59.470Z,49.06
2023-05-09T12:12:59.614Z,49.06
2023-05-09T12:13:59.614Z,49.03
2023-05-09T12:14:59.748Z,49.07
2023-05-09T12:15:59.663Z,49.07
2023-05-09T12:16:59.713Z,49.07
2023-05-09T12:17:59.779Z,49.08
2023-05-09T12:18:59.797Z,49.07
2023-05-09T12:20:00.217Z,49.03
2023-05-09T12:20:59.863Z,49.01
2023-05-09T12:21:59.950Z,49.05
2023-05-09T12:22:59.988Z,49.10
2023-05-09T12:24:00.080Z,49.07
2023-05-09T12:25:00.237Z,49.04
2023-05-09T12:26:00.149Z,49.09
2023-05-09T12:27:00.321Z,49.14
2023-05-09T12:28:00.346Z,49.13
2023-05-09T12:29:00.361Z,49.12
2023-05-09T12:30:00.315Z,49.14
2023-05-09T12:31:00.425Z,49.15
2023-05-09T12:32:00.403Z,49.17
2023-05-09T12:33:00.516Z,49.19
2023-05-09T12:34:00.515Z,49.18
2023-05-09T12:35:00.554Z,49.25
2023-05-09T12:36:00.596Z,49.19
2023-05-09T12:37:00.639Z,49.17
2023-05-09T12:38:00.679Z,49.16
2023-05-09T12:39:00.748Z,49.13
2023-05-09T12:40:01.253Z,49.12
2023-05-09T12:41:02.830Z,49.14
2023-05-09T12:42:01.910Z,49.17
2023-05-09T12:43:00.931Z,49.15
2023-05-09T12:44:00.829Z,49.17
2023-05-09T12:45:00.888Z,49.17
2023-05-09T12:46:00.778Z,49.21
2023-05-09T12:47:00.813Z,49.22
2023-05-09T12:48:00.863Z,49.20
2023-05-09T12:49:00.790Z,49.16
2023-05-09T12:50:00.776Z,49.15
2023-05-09T12:51:00.771Z,49.15
2023-05-09T12:52:03.028Z,49.19
2023-05-09T12:53:03.672Z,49.20